Terminal Aerodrome Forecast
Issued by NWS Spokane, WA

Home | Current Version | Previous Version | Text Only | Print | Product List | Glossary On
Versions: 1 2 3 4 5 6 7 8 9 10 11 12 13 14 15 16 17 18 19 20 21 22 23 24 25 26
000
FTUS46 KOTX 291937 AAA
TAFGEG
TAF AMD
KGEG 291937Z 2920/3018 17009KT 2SM -RA BKN007 OVC014
     FM292030 19011KT 4SM BR VCSH BKN007 OVC014
     FM292200 20013KT P6SM BKN015 OVC025
     FM300600 21011KT P6SM OVC008=

USA.gov is the U.S. government's official web portal to all federal, state and local government web resources and services.